Time;durP1;ratioP1;P1;durP2;ratioP2;P2;SDS_P1;SDS_P2;PMS_P1;PMS_P2;Temp;Humidity;BMP_temperature;BMP_pressure;BME280_temperature;BME280_humidity;BME280_pressure;Samples;Min_cycle;Max_cycle;Signal;HPM_P1;HPM_P2
2023/02/12 00:01:28;;;;;;;11.05;7.63;;;23.10;40.70;;;;;;6126215;28;80726;-49
2023/02/12 00:04:29;;;;;;;11.63;7.65;;;23.10;40.70;;;;;;6130538;28;81852;-48
2023/02/12 00:07:30;;;;;;;11.05;8.20;;;23.10;40.80;;;;;;6129586;28;81973;-54
2023/02/12 00:10:30;;;;;;;12.40;7.80;;;23.10;40.90;;;;;;6129871;28;81824;-52
2023/02/12 00:13:31;;;;;;;11.85;7.43;;;23.10;41.00;;;;;;6131499;28;80355;-53
2023/02/12 00:16:32;;;;;;;12.50;7.70;;;23.10;41.20;;;;;;6128970;28;80324;-47
2023/02/12 00:19:32;;;;;;;11.82;8.15;;;23.00;41.20;;;;;;6129702;28;80836;-52
2023/02/12 00:22:33;;;;;;;11.82;8.20;;;23.00;41.20;;;;;;6130557;28;80681;-49
2023/02/12 00:25:33;;;;;;;12.25;8.43;;;23.00;41.30;;;;;;6130119;28;80860;-65
2023/02/12 00:28:34;;;;;;;13.10;8.27;;;23.00;41.30;;;;;;6125239;28;81165;-66
2023/02/12 00:31:34;;;;;;;10.25;7.63;;;23.00;41.40;;;;;;6129105;28;81019;-65
2023/02/12 00:34:35;;;;;;;12.25;7.97;;;23.00;41.40;;;;;;6136766;28;84157;-65
2023/02/12 00:37:35;;;;;;;10.02;7.25;;;23.00;41.50;;;;;;6136050;28;80682;-66
2023/02/12 00:40:36;;;;;;;15.18;8.02;;;23.00;41.70;;;;;;6146928;28;81577;-66
2023/02/12 00:43:36;;;;;;;12.25;7.60;;;23.00;41.60;;;;;;6127420;28;83434;-66
2023/02/12 00:46:37;;;;;;;14.02;7.95;;;23.00;41.70;;;;;;6136107;28;82475;-66
2023/02/12 00:49:38;;;;;;;11.40;7.80;;;23.00;41.70;;;;;;6135722;28;80770;-67
2023/02/12 00:52:38;;;;;;;12.93;8.68;;;23.00;41.70;;;;;;6139949;28;80758;-65
2023/02/12 00:55:39;;;;;;;13.18;7.75;;;23.00;41.70;;;;;;6139375;28;81374;-65
2023/02/12 00:58:39;;;;;;;12.48;7.82;;;23.00;41.70;;;;;;6136052;28;81003;-66
2023/02/12 01:01:40;;;;;;;10.50;7.38;;;23.00;41.80;;;;;;6127014;28;82098;-66
2023/02/12 01:04:41;;;;;;;11.55;7.30;;;23.00;41.70;;;;;;6143426;28;81781;-67
2023/02/12 01:07:41;;;;;;;10.45;7.57;;;23.00;41.70;;;;;;6141778;28;80722;-66
2023/02/12 01:10:42;;;;;;;11.23;7.82;;;23.00;41.60;;;;;;6129199;28;81533;-65
2023/02/12 01:13:43;;;;;;;11.95;7.18;;;23.00;41.60;;;;;;6127391;28;83956;-64
2023/02/12 01:16:44;;;;;;;11.43;8.15;;;23.00;41.50;;;;;;6127854;28;82153;-65
2023/02/12 01:19:45;;;;;;;12.27;7.93;;;23.00;41.40;;;;;;6128081;28;82430;-65
2023/02/12 01:22:45;;;;;;;11.45;7.30;;;22.90;41.40;;;;;;6129011;28;82353;-67
2023/02/12 01:25:47;;;;;;;9.93;7.00;;;22.90;41.30;;;;;;6142278;28;81755;-66
2023/02/12 01:28:47;;;;;;;10.07;7.22;;;22.90;41.20;;;;;;6127743;28;90163;-65
2023/02/12 01:31:47;;;;;;;12.30;7.70;;;22.90;41.30;;;;;;6129081;28;83460;-64
2023/02/12 01:34:48;;;;;;;9.77;6.60;;;22.90;41.30;;;;;;6128484;28;80665;-65
2023/02/12 01:37:49;;;;;;;9.68;7.10;;;22.90;41.30;;;;;;6127752;28;81385;-67
2023/02/12 01:40:49;;;;;;;10.57;6.88;;;22.90;41.40;;;;;;6129052;28;82459;-60
2023/02/12 01:43:50;;;;;;;10.50;6.80;;;22.90;41.20;;;;;;6128017;28;80709;-61
2023/02/12 01:46:50;;;;;;;13.40;7.85;;;22.90;41.50;;;;;;6125944;28;82201;-60
2023/02/12 01:49:51;;;;;;;11.00;6.65;;;22.90;41.40;;;;;;6128390;28;81993;-60
2023/02/12 01:52:52;;;;;;;10.18;6.85;;;22.90;41.40;;;;;;6123408;28;81744;-59
2023/02/12 01:55:53;;;;;;;10.77;6.97;;;22.90;41.60;;;;;;6121968;28;83869;-59
2023/02/12 01:58:54;;;;;;;12.15;7.00;;;22.90;41.70;;;;;;6126404;28;83920;-60
2023/02/12 02:01:55;;;;;;;9.82;7.30;;;22.90;42.10;;;;;;6139918;28;80121;-60
2023/02/12 02:04:55;;;;;;;11.77;6.97;;;22.90;42.10;;;;;;6143460;28;81759;-60
2023/02/12 02:07:56;;;;;;;8.25;6.38;;;22.90;42.20;;;;;;6128740;28;80748;-60
2023/02/12 02:10:56;;;;;;;10.43;6.97;;;22.90;42.30;;;;;;6127481;28;81397;-60
2023/02/12 02:17:16;;;;;;;9.23;6.43;;;22.90;42.40;;;;;;6128069;28;80480;-66
2023/02/12 02:20:17;;;;;;;9.65;6.15;;;22.90;42.50;;;;;;6128499;28;80193;-67
2023/02/12 02:23:17;;;;;;;11.73;7.18;;;22.90;42.60;;;;;;6128333;28;81140;-68
2023/02/12 02:26:18;;;;;;;8.75;6.30;;;22.90;42.70;;;;;;6128482;28;81040;-65
2023/02/12 02:29:18;;;;;;;10.10;6.30;;;22.90;42.80;;;;;;6122597;28;81001;-65
2023/02/12 02:32:19;;;;;;;10.18;6.68;;;22.90;42.90;;;;;;6138676;28;83246;-67
2023/02/12 02:35:19;;;;;;;10.48;7.05;;;22.90;43.70;;;;;;6128374;28;80546;-65
2023/02/12 02:38:20;;;;;;;10.18;6.45;;;22.90;43.10;;;;;;6127085;28;80335;-66
2023/02/12 02:41:21;;;;;;;11.05;6.93;;;22.90;43.10;;;;;;6132582;28;81148;-65
2023/02/12 02:44:22;;;;;;;11.35;7.35;;;22.80;42.80;;;;;;6132180;28;80366;-66
2023/02/12 02:47:22;;;;;;;9.27;6.60;;;22.80;43.40;;;;;;6123371;28;80657;-67
2023/02/12 02:50:23;;;;;;;9.70;6.97;;;22.80;42.70;;;;;;6132057;28;80401;-67
2023/02/12 02:53:23;;;;;;;11.77;7.28;;;22.80;42.60;;;;;;6131650;28;80684;-66
2023/02/12 02:56:24;;;;;;;10.30;6.50;;;22.80;42.60;;;;;;6132278;28;80802;-64
2023/02/12 02:59:24;;;;;;;8.98;6.03;;;22.80;42.40;;;;;;6131410;28;81966;-66
2023/02/12 03:02:25;;;;;;;10.23;6.28;;;22.80;42.60;;;;;;6130871;28;81195;-64
2023/02/12 03:05:25;;;;;;;10.23;6.63;;;22.80;42.50;;;;;;6132130;28;80416;-64
2023/02/12 03:08:26;;;;;;;9.90;6.60;;;22.80;42.40;;;;;;6130805;28;80412;-62
2023/02/12 03:11:26;;;;;;;8.45;6.03;;;22.80;42.40;;;;;;6131290;28;80598;-62
2023/02/12 03:14:27;;;;;;;8.23;5.28;;;22.80;42.80;;;;;;6130975;28;80464;-63
2023/02/12 03:17:27;;;;;;;8.70;5.93;;;22.80;42.10;;;;;;6129374;28;80035;-64
2023/02/12 03:20:28;;;;;;;8.95;5.63;;;22.80;42.20;;;;;;6128621;28;81166;-66
2023/02/12 03:23:28;;;;;;;7.80;5.45;;;22.80;42.30;;;;;;6121411;28;80930;-67
2023/02/12 03:26:29;;;;;;;8.88;5.53;;;22.80;42.10;;;;;;6132039;28;80498;-67
2023/02/12 03:29:29;;;;;;;8.85;5.78;;;22.80;42.20;;;;;;6124883;28;80346;-67
2023/02/12 03:32:30;;;;;;;9.05;5.57;;;22.80;42.20;;;;;;6130743;28;80802;-70
2023/02/12 03:35:30;;;;;;;9.05;5.32;;;22.80;42.20;;;;;;6130270;28;81200;-68
2023/02/12 03:38:31;;;;;;;7.57;5.25;;;22.80;42.40;;;;;;6130332;28;80458;-68
2023/02/12 03:41:31;;;;;;;7.97;4.88;;;22.80;42.50;;;;;;6131401;28;80716;-66
2023/02/12 03:44:32;;;;;;;8.20;5.20;;;22.80;42.60;;;;;;6124301;28;80479;-66
2023/02/12 03:47:32;;;;;;;8.50;5.63;;;22.80;43.00;;;;;;6139246;28;83193;-62
2023/02/12 03:50:33;;;;;;;5.82;4.45;;;22.80;42.80;;;;;;6129851;28;80879;-65
2023/02/12 03:53:33;;;;;;;7.25;5.18;;;22.80;43.10;;;;;;6130674;28;80167;-64
2023/02/12 03:56:34;;;;;;;8.02;5.20;;;22.70;42.80;;;;;;6131433;28;80399;-64
2023/02/12 03:59:35;;;;;;;6.63;4.50;;;22.80;43.10;;;;;;6129296;28;80565;-65
2023/02/12 04:02:35;;;;;;;8.90;5.60;;;22.80;43.40;;;;;;6130920;28;80688;-65
2023/02/12 04:05:36;;;;;;;12.43;4.60;;;22.80;43.30;;;;;;6130102;28;80260;-60
2023/02/12 04:08:36;;;;;;;8.52;5.50;;;22.70;43.20;;;;;;6131017;28;80173;-59
2023/02/12 04:11:37;;;;;;;7.55;4.65;;;22.70;43.20;;;;;;6130182;28;81775;-60
2023/02/12 04:14:37;;;;;;;7.60;5.13;;;22.70;43.40;;;;;;6138771;28;82200;-60
2023/02/12 04:17:39;;;;;;;9.30;5.22;;;22.70;42.90;;;;;;6149594;28;80481;-59
2023/02/12 04:20:39;;;;;;;6.72;4.78;;;22.80;42.90;;;;;;6129976;28;80334;-60
2023/02/12 04:23:40;;;;;;;6.55;4.68;;;22.80;42.70;;;;;;6133125;28;81312;-60
2023/02/12 04:26:40;;;;;;;6.70;4.78;;;22.80;42.50;;;;;;6141220;28;80279;-60
2023/02/12 04:29:41;;;;;;;7.32;4.82;;;22.90;42.40;;;;;;6130546;28;83871;-60
2023/02/12 04:32:41;;;;;;;8.73;5.05;;;22.90;42.30;;;;;;6130526;28;80322;-59
2023/02/12 04:35:42;;;;;;;7.03;4.60;;;22.90;42.20;;;;;;6128618;28;80404;-61
2023/02/12 04:38:42;;;;;;;8.93;5.00;;;23.00;42.10;;;;;;6129611;28;80469;-59
2023/02/12 04:41:43;;;;;;;8.00;5.00;;;23.00;42.10;;;;;;6131554;28;80319;-59
2023/02/12 04:44:43;;;;;;;5.88;4.43;;;23.00;42.20;;;;;;6136903;28;87398;-59
2023/02/12 04:47:44;;;;;;;6.88;4.60;;;23.10;42.50;;;;;;6138219;28;81410;-60
2023/02/12 04:50:45;;;;;;;10.45;5.60;;;23.10;42.70;;;;;;6139287;28;80452;-60
2023/02/12 04:53:46;;;;;;;8.70;4.43;;;23.20;42.80;;;;;;6127165;28;80851;-60
2023/02/12 04:56:46;;;;;;;6.43;4.43;;;23.20;42.80;;;;;;6128011;28;80943;-60
2023/02/12 04:59:47;;;;;;;5.75;4.05;;;23.20;42.80;;;;;;6128282;28;80993;-61
2023/02/12 05:02:47;;;;;;;7.72;4.70;;;23.20;42.80;;;;;;6125875;28;81760;-60
2023/02/12 05:05:48;;;;;;;6.40;4.18;;;23.20;42.70;;;;;;6129102;28;80166;-59
2023/02/12 05:08:48;;;;;;;6.78;4.00;;;23.30;42.70;;;;;;6128962;28;80540;-60
2023/02/12 05:11:49;;;;;;;5.95;3.80;;;23.30;42.70;;;;;;6128669;28;80475;-60
2023/02/12 05:14:49;;;;;;;6.88;4.28;;;23.30;42.60;;;;;;6128437;28;80183;-59
2023/02/12 05:17:50;;;;;;;7.60;3.92;;;23.30;42.70;;;;;;6129405;28;81187;-59
2023/02/12 05:20:50;;;;;;;6.43;3.70;;;23.30;42.60;;;;;;6128463;28;81358;-59
2023/02/12 05:23:51;;;;;;;6.68;3.95;;;23.30;42.60;;;;;;6141609;28;80303;-59
2023/02/12 05:26:51;;;;;;;6.65;3.70;;;23.30;42.40;;;;;;6130554;28;80255;-60
2023/02/12 05:29:52;;;;;;;6.20;3.75;;;23.30;42.40;;;;;;6126506;28;80517;-60
2023/02/12 05:32:53;;;;;;;8.52;4.13;;;23.40;42.70;;;;;;6128386;28;80454;-60
2023/02/12 05:35:54;;;;;;;6.57;3.20;;;23.40;42.90;;;;;;6122459;28;80950;-60
2023/02/12 05:38:54;;;;;;;5.70;3.47;;;23.40;43.00;;;;;;6128280;28;81704;-58
2023/02/12 05:41:55;;;;;;;6.38;3.20;;;23.40;43.10;;;;;;6117709;28;81025;-59
2023/02/12 05:44:55;;;;;;;5.90;3.17;;;23.40;43.00;;;;;;6117707;28;85315;-59
2023/02/12 05:47:56;;;;;;;5.07;3.33;;;23.40;43.20;;;;;;6123471;28;85383;-58
2023/02/12 05:50:56;;;;;;;5.60;3.55;;;23.40;43.10;;;;;;6127337;28;81302;-58
2023/02/12 05:53:58;;;;;;;7.00;3.20;;;23.40;43.30;;;;;;6128060;28;82093;-58
2023/02/12 05:56:59;;;;;;;6.95;3.20;;;23.40;43.40;;;;;;6127852;28;80856;-56
2023/02/12 05:59:59;;;;;;;6.22;2.97;;;23.40;43.60;;;;;;6127698;28;80762;-56
2023/02/12 06:03:00;;;;;;;7.50;3.63;;;23.40;43.60;;;;;;6118128;28;81134;-58
2023/02/12 06:06:00;;;;;;;5.25;2.95;;;23.40;43.60;;;;;;6116825;28;81195;-52
2023/02/12 06:09:01;;;;;;;5.03;2.75;;;23.40;44.00;;;;;;6121661;28;80496;-52
2023/02/12 06:12:01;;;;;;;4.03;2.58;;;23.30;44.80;;;;;;6111698;28;80651;-50
2023/02/12 06:15:02;;;;;;;5.15;3.17;;;23.30;44.30;;;;;;6131200;28;80842;-53
2023/02/12 06:18:03;;;;;;;4.03;2.72;;;23.30;43.60;;;;;;6133982;28;80630;-59
2023/02/12 06:21:03;;;;;;;5.88;2.92;;;23.30;43.70;;;;;;6131328;28;80911;-53
2023/02/12 06:24:04;;;;;;;10.80;3.17;;;23.20;43.50;;;;;;6132146;28;81005;-54
2023/02/12 06:27:04;;;;;;;5.43;3.00;;;23.20;43.40;;;;;;6141458;28;83354;-54
2023/02/12 06:30:05;;;;;;;6.80;3.25;;;23.20;43.50;;;;;;6123638;28;80620;-51
2023/02/12 06:33:05;;;;;;;5.00;2.92;;;23.20;43.00;;;;;;6121956;28;80502;-54
2023/02/12 06:36:06;;;;;;;5.40;3.17;;;23.20;42.90;;;;;;6126822;28;81303;-56
2023/02/12 06:39:06;;;;;;;7.65;3.58;;;23.20;42.90;;;;;;6126085;28;80280;-53
2023/02/12 06:42:07;;;;;;;8.48;3.42;;;23.20;43.10;;;;;;6124563;28;80791;-56
2023/02/12 06:45:07;;;;;;;8.50;3.00;;;23.20;42.70;;;;;;6132440;28;80762;-55
2023/02/12 06:48:08;;;;;;;9.43;3.83;;;23.20;43.30;;;;;;6131544;28;83769;-55
2023/02/12 06:51:08;;;;;;;8.93;3.38;;;23.10;43.50;;;;;;6129030;28;80935;-58
2023/02/12 06:54:09;;;;;;;5.78;3.05;;;23.10;43.40;;;;;;6129293;28;80483;-53
2023/02/12 06:57:09;;;;;;;12.90;3.65;;;23.10;43.50;;;;;;6124154;28;81005;-52
2023/02/12 07:00:10;;;;;;;7.63;3.00;;;23.20;43.50;;;;;;6116848;28;81209;-52
2023/02/12 07:03:10;;;;;;;7.70;3.88;;;23.20;43.70;;;;;;6119034;28;80592;-57
2023/02/12 07:06:11;;;;;;;5.35;3.20;;;23.20;43.80;;;;;;6123693;28;82312;-54
2023/02/12 07:09:12;;;;;;;7.28;3.00;;;23.20;44.10;;;;;;6124034;28;80617;-57
2023/02/12 07:12:12;;;;;;;3.97;2.45;;;23.20;43.90;;;;;;6120972;28;80788;-55
2023/02/12 07:15:13;;;;;;;6.20;3.13;;;23.20;43.90;;;;;;6122880;28;80485;-58
2023/02/12 07:18:14;;;;;;;4.55;2.95;;;23.20;43.30;;;;;;6121758;28;81684;-55
2023/02/12 07:21:14;;;;;;;6.13;2.85;;;23.20;43.20;;;;;;6124236;28;81883;-57
2023/02/12 07:24:17;;;;;;;8.82;3.28;;;23.20;43.30;;;;;;6122770;28;81290;-54
2023/02/12 07:27:17;;;;;;;7.88;2.70;;;23.20;43.70;;;;;;6135342;28;83459;-60
2023/02/12 07:30:18;;;;;;;8.75;3.35;;;23.10;43.30;;;;;;6114556;28;81330;-60
2023/02/12 07:33:19;;;;;;;8.38;3.33;;;23.10;43.30;;;;;;6119310;28;85982;-62
2023/02/12 07:36:19;;;;;;;5.35;3.17;;;23.10;43.20;;;;;;6116110;28;80618;-63
2023/02/12 07:39:20;;;;;;;7.60;2.78;;;23.10;43.70;;;;;;6110386;28;80745;-59
2023/02/12 07:42:20;;;;;;;9.02;3.17;;;23.10;43.60;;;;;;6108781;28;83000;-61
2023/02/12 07:45:23;;;;;;;6.82;3.10;;;23.10;43.50;;;;;;6117924;28;80503;-55
2023/02/12 07:48:23;;;;;;;4.88;2.80;;;23.10;43.50;;;;;;6113843;28;80880;-57
2023/02/12 07:51:25;;;;;;;5.43;2.45;;;23.10;43.40;;;;;;6114407;28;83529;-59
2023/02/12 07:54:25;;;;;;;5.90;2.85;;;23.10;43.40;;;;;;6103720;28;80604;-56
2023/02/12 07:57:26;;;;;;;4.00;2.28;;;23.10;43.20;;;;;;6110796;28;81012;-55
2023/02/12 08:00:26;;;;;;;4.20;2.10;;;23.10;43.00;;;;;;6118018;28;81168;-56
2023/02/12 08:03:27;;;;;;;4.32;2.67;;;23.10;43.00;;;;;;6114937;28;80249;-56
2023/02/12 08:06:27;;;;;;;4.85;2.30;;;23.10;42.80;;;;;;6120976;28;84751;-57
2023/02/12 08:09:29;;;;;;;3.47;2.15;;;23.10;42.80;;;;;;6111037;28;82148;-49
2023/02/12 08:12:30;;;;;;;5.68;2.50;;;23.10;42.80;;;;;;6115412;28;81414;-57
2023/02/12 08:15:30;;;;;;;5.45;2.33;;;23.10;42.60;;;;;;6121603;28;80778;-60
2023/02/12 08:18:31;;;;;;;12.95;2.40;;;23.10;42.60;;;;;;6123074;28;80246;-52
2023/02/12 08:21:31;;;;;;;3.72;2.47;;;23.00;42.60;;;;;;6126352;28;81953;-59
2023/02/12 08:24:32;;;;;;;4.38;2.10;;;23.00;42.40;;;;;;6121048;28;80662;-59
2023/02/12 08:27:33;;;;;;;6.43;3.08;;;23.10;42.20;;;;;;6122542;28;81732;-54
2023/02/12 08:30:33;;;;;;;16.45;7.63;;;23.00;42.10;;;;;;6127427;28;81306;-61
2023/02/12 08:33:34;;;;;;;95.63;45.60;;;23.00;42.00;;;;;;6115950;28;87292;-64
2023/02/12 08:36:34;;;;;;;195.13;91.25;;;23.00;41.80;;;;;;6118315;28;83343;-61
2023/02/12 08:39:35;;;;;;;245.52;115.60;;;23.10;42.30;;;;;;6118314;28;83980;-58
2023/02/12 08:42:35;;;;;;;322.10;151.75;;;23.10;41.50;;;;;;6114977;28;85704;-60
2023/02/12 08:45:36;;;;;;;334.42;158.02;;;23.10;41.20;;;;;;6117680;28;85908;-61
2023/02/12 08:48:36;;;;;;;296.98;139.35;;;23.10;40.80;;;;;;6116267;28;87603;-60
2023/02/12 08:51:37;;;;;;;294.17;132.63;;;23.10;40.80;;;;;;6116700;28;85902;-59
2023/02/12 08:54:37;;;;;;;248.85;117.07;;;23.10;40.70;;;;;;6121750;28;85309;-54
2023/02/12 08:57:38;;;;;;;211.55;103.63;;;23.10;40.50;;;;;;6116143;28;86184;-54
2023/02/12 09:11:12;;;;;;;331.35;155.23;;;23.10;40.60;;;;;;6296114;27;75196;-56
2023/02/12 09:14:12;;;;;;;352.38;169.45;;;23.20;41.00;;;;;;6282730;27;89796;-57
2023/02/12 09:17:13;;;;;;;415.45;198.98;;;23.20;41.10;;;;;;6267202;27;86636;-57
2023/02/12 09:20:13;;;;;;;334.27;165.63;;;23.20;41.20;;;;;;6285406;27;85694;-58
2023/02/12 09:23:14;;;;;;;321.42;145.57;;;23.30;41.10;;;;;;6277212;27;85719;-59
2023/02/12 09:26:15;;;;;;;258.33;129.55;;;23.30;41.00;;;;;;6268612;27;86413;-58
2023/02/12 09:29:15;;;;;;;251.68;119.38;;;23.40;40.70;;;;;;6275178;27;85839;-56
2023/02/12 09:32:16;;;;;;;219.98;105.13;;;23.40;40.60;;;;;;6285619;27;85908;-51
2023/02/12 09:35:17;;;;;;;197.75;95.78;;;23.40;40.30;;;;;;6288068;27;85501;-57
2023/02/12 09:38:18;;;;;;;195.70;91.25;;;23.50;40.20;;;;;;6290577;27;85317;-64
2023/02/12 09:41:18;;;;;;;162.70;81.75;;;23.40;40.00;;;;;;6278309;27;87722;-65
2023/02/12 09:44:19;;;;;;;168.90;80.25;;;23.50;39.90;;;;;;6291360;27;82827;-60
2023/02/12 09:47:20;;;;;;;159.65;73.45;;;23.50;39.90;;;;;;6286704;27;83010;-61
2023/02/12 09:50:20;;;;;;;141.90;69.78;;;23.50;40.40;;;;;;6267514;27;86897;-60
2023/02/12 09:53:21;;;;;;;136.38;64.78;;;23.50;40.60;;;;;;6288466;27;84653;-64
2023/02/12 09:56:21;;;;;;;123.90;61.50;;;23.50;40.90;;;;;;6286553;27;83620;-54
2023/02/12 09:59:22;;;;;;;118.35;58.40;;;23.60;40.50;;;;;;6281813;27;84293;-63
2023/02/12 10:02:22;;;;;;;124.00;54.90;;;23.60;39.90;;;;;;6273463;27;85131;-61
2023/02/12 10:05:23;;;;;;;100.80;49.30;;;23.60;39.50;;;;;;6285772;27;83060;-54
2023/02/12 10:08:23;;;;;;;100.50;47.97;;;23.60;39.30;;;;;;6275525;27;84164;-51
2023/02/12 10:11:24;;;;;;;97.82;47.05;;;23.60;39.70;;;;;;6270089;27;84210;-55
2023/02/12 10:14:24;;;;;;;90.18;43.67;;;23.60;40.10;;;;;;6276101;27;83271;-48
2023/02/12 10:17:25;;;;;;;91.63;44.92;;;23.60;40.20;;;;;;6252404;27;82645;-50
2023/02/12 10:20:25;;;;;;;85.80;39.10;;;23.60;40.10;;;;;;6243014;27;86551;-53
2023/02/12 10:23:26;;;;;;;81.78;39.25;;;23.70;39.90;;;;;;6241206;27;84611;-53
2023/02/12 10:26:26;;;;;;;69.82;37.15;;;23.70;40.00;;;;;;6260116;27;89229;-49
2023/02/12 10:29:27;;;;;;;66.75;34.45;;;23.70;40.00;;;;;;6256998;27;84106;-53
2023/02/12 10:32:27;;;;;;;69.88;32.88;;;23.70;39.70;;;;;;6251040;27;83038;-54
2023/02/12 10:35:28;;;;;;;65.53;31.30;;;23.70;39.50;;;;;;6247900;27;83219;-48
2023/02/12 10:38:28;;;;;;;58.00;29.13;;;23.80;39.30;;;;;;6249852;27;82944;-51
2023/02/12 10:41:29;;;;;;;53.55;28.50;;;23.80;38.80;;;;;;6249089;27;87824;-52
2023/02/12 10:44:29;;;;;;;51.53;26.63;;;23.90;38.70;;;;;;6240968;27;83128;-56
2023/02/12 10:47:30;;;;;;;51.20;26.50;;;23.90;38.60;;;;;;6269126;27;83241;-56
2023/02/12 10:50:31;;;;;;;50.83;25.65;;;24.00;39.00;;;;;;6251295;27;83336;-53
2023/02/12 10:53:31;;;;;;;43.70;22.05;;;24.10;39.50;;;;;;6239523;27;83592;-50
2023/02/12 10:56:32;;;;;;;42.03;21.25;;;24.30;38.70;;;;;;6244370;27;84694;-49
2023/02/12 10:59:32;;;;;;;42.67;21.65;;;24.30;38.80;;;;;;6249488;27;83757;-53
2023/02/12 11:02:33;;;;;;;45.63;23.95;;;24.30;39.80;;;;;;6258404;27;87057;-52
2023/02/12 11:05:33;;;;;;;35.22;19.05;;;24.30;42.20;;;;;;6260420;27;83187;-54
2023/02/12 11:08:34;;;;;;;41.13;20.10;;;24.30;41.10;;;;;;6255809;27;86084;-52
2023/02/12 11:11:35;;;;;;;53.65;22.83;;;24.30;41.80;;;;;;6251264;27;83427;-55
2023/02/12 11:14:35;;;;;;;46.15;19.35;;;24.30;42.10;;;;;;6247450;27;83141;-58
2023/02/12 11:17:36;;;;;;;30.80;14.60;;;24.40;41.10;;;;;;6256718;27;82943;-53
2023/02/12 11:20:37;;;;;;;29.23;12.73;;;24.40;39.10;;;;;;6250211;27;84647;-54
2023/02/12 11:23:38;;;;;;;32.17;13.63;;;24.30;37.90;;;;;;6255442;27;82973;-53
2023/02/12 11:26:38;;;;;;;43.38;14.90;;;24.10;38.20;;;;;;6252345;27;83968;-48
2023/02/12 11:29:39;;;;;;;43.50;14.85;;;24.00;38.40;;;;;;6249480;27;86398;-51
2023/02/12 11:32:40;;;;;;;40.08;13.90;;;24.00;39.40;;;;;;6261267;27;85999;-50
2023/02/12 11:35:40;;;;;;;35.22;12.27;;;24.00;39.00;;;;;;6247261;27;83825;-49
2023/02/12 11:38:41;;;;;;;40.10;12.30;;;24.00;39.20;;;;;;6256861;27;86180;-63
2023/02/12 11:41:41;;;;;;;31.55;12.43;;;24.00;39.70;;;;;;6248072;27;83690;-55
2023/02/12 11:44:42;;;;;;;22.73;9.32;;;24.00;39.40;;;;;;6249422;27;83067;-54
2023/02/12 11:47:43;;;;;;;18.13;8.63;;;24.00;37.70;;;;;;6249281;27;82920;-54
2023/02/12 11:50:43;;;;;;;16.08;6.72;;;23.90;36.60;;;;;;6247065;27;80973;-57
2023/02/12 11:53:44;;;;;;;16.05;6.28;;;23.90;35.90;;;;;;6252172;27;82301;-57
2023/02/12 11:56:44;;;;;;;11.00;5.53;;;24.00;35.30;;;;;;6251645;27;85476;-54
2023/02/12 11:59:45;;;;;;;10.13;4.80;;;23.90;34.70;;;;;;6245162;27;80549;-60
2023/02/12 12:02:45;;;;;;;10.90;4.47;;;24.00;34.40;;;;;;6247289;27;80940;-63
2023/02/12 12:05:46;;;;;;;8.48;3.53;;;24.00;34.10;;;;;;6245248;27;80872;-52
2023/02/12 12:08:47;;;;;;;7.22;3.80;;;24.10;34.00;;;;;;6248893;27;80986;-60
2023/02/12 12:11:47;;;;;;;6.78;4.28;;;24.10;35.30;;;;;;6259270;27;81264;-52
2023/02/12 12:21:26;;;;;;;7.40;3.80;;;24.00;36.70;;;;;;6266433;27;82620;-51
2023/02/12 12:24:27;;;;;;;8.68;3.17;;;23.90;37.20;;;;;;6255070;27;80264;-53
2023/02/12 12:28:13;;;;;;;5.13;3.50;;;23.80;37.20;;;;;;6252179;27;80969;-50
2023/02/12 12:30:49;;;;;;;7.72;3.92;;;23.80;37.90;;;;;;6247712;27;80880;-53
2023/02/12 12:33:49;;;;;;;6.45;3.42;;;23.80;36.90;;;;;;6267808;27;80552;-53
2023/02/12 12:36:50;;;;;;;7.88;3.63;;;23.80;37.30;;;;;;6272008;27;80737;-55
2023/02/12 12:39:51;;;;;;;6.68;3.80;;;23.80;37.80;;;;;;6274672;27;81648;-63
2023/02/12 12:42:51;;;;;;;6.03;3.33;;;23.90;37.90;;;;;;6260962;27;80696;-64
2023/02/12 12:45:52;;;;;;;6.20;3.63;;;23.90;38.00;;;;;;6272210;27;80752;-66
2023/02/12 12:48:52;;;;;;;8.20;4.25;;;24.00;37.10;;;;;;6271438;27;80277;-65
2023/02/12 12:51:53;;;;;;;7.55;4.13;;;23.90;38.70;;;;;;6266859;27;80723;-66
2023/02/12 12:54:53;;;;;;;6.43;3.28;;;23.90;38.50;;;;;;6269192;27;80575;-65
2023/02/12 12:57:54;;;;;;;6.30;3.53;;;24.00;37.40;;;;;;6261317;27;82387;-64
2023/02/12 13:00:54;;;;;;;6.28;3.83;;;24.00;38.50;;;;;;6246568;27;80707;-62
2023/02/12 13:03:55;;;;;;;5.25;3.25;;;24.00;38.30;;;;;;6251478;27;82990;-65
2023/02/12 13:06:56;;;;;;;7.70;3.72;;;24.10;38.50;;;;;;6262622;27;80931;-60
2023/02/12 13:09:56;;;;;;;6.00;3.40;;;24.20;39.10;;;;;;6256560;27;80454;-65
2023/02/12 13:12:57;;;;;;;5.60;3.35;;;24.20;38.70;;;;;;6269848;27;80268;-66
2023/02/12 13:15:57;;;;;;;4.47;3.08;;;24.20;38.60;;;;;;6253973;27;80494;-54
2023/02/12 13:18:58;;;;;;;7.18;3.35;;;24.30;39.50;;;;;;6257884;27;83481;-52
2023/02/12 13:21:58;;;;;;;6.30;3.60;;;24.40;39.80;;;;;;6262235;27;80690;-53
2023/02/12 13:24:59;;;;;;;7.10;3.15;;;24.50;41.20;;;;;;6237641;27;87730;-56
2023/02/12 13:27:59;;;;;;;6.07;3.30;;;24.60;43.40;;;;;;6243543;27;82301;-59
2023/02/12 13:31:00;;;;;;;8.25;3.88;;;24.70;42.20;;;;;;6249602;27;82506;-52
2023/02/12 13:34:00;;;;;;;51.00;24.42;;;24.80;41.90;;;;;;6256403;27;80233;-51
2023/02/12 13:37:01;;;;;;;129.85;58.90;;;24.70;40.50;;;;;;6252584;27;82922;-65
2023/02/12 13:40:01;;;;;;;157.57;78.32;;;24.70;39.00;;;;;;6249645;27;83452;-66
2023/02/12 13:43:02;;;;;;;194.88;92.55;;;24.70;38.90;;;;;;6240444;27;84234;-67
2023/02/12 13:46:02;;;;;;;226.77;111.07;;;24.60;38.80;;;;;;6252262;27;83573;-65
2023/02/12 13:49:03;;;;;;;265.25;127.32;;;24.50;38.60;;;;;;6257158;27;86173;-64
2023/02/12 13:52:03;;;;;;;280.95;132.18;;;24.40;38.50;;;;;;6241136;27;86854;-71
2023/02/12 13:55:04;;;;;;;244.57;115.22;;;24.40;38.50;;;;;;6243447;27;86820;-67
2023/02/12 13:58:04;;;;;;;206.18;96.07;;;24.20;37.50;;;;;;6251770;27;88847;-65
2023/02/12 14:01:07;;;;;;;195.43;95.97;;;24.40;38.00;;;;;;6260082;27;85276;-69
2023/02/12 14:04:07;;;;;;;182.70;91.53;;;24.40;37.70;;;;;;6261039;27;87328;-62
2023/02/12 14:07:11;;;;;;;183.52;93.93;;;24.40;37.00;;;;;;6258989;27;84323;-66
2023/02/12 14:10:12;;;;;;;174.40;90.32;;;24.90;36.10;;;;;;6254982;27;90429;-65
2023/02/12 14:13:12;;;;;;;192.43;100.43;;;25.50;35.40;;;;;;6255326;27;87001;-61
2023/02/12 14:16:13;;;;;;;181.73;98.88;;;26.10;34.80;;;;;;6249615;27;87651;-62
2023/02/12 14:19:13;;;;;;;191.55;99.90;;;26.40;34.20;;;;;;6259635;27;85466;-62
2023/02/12 14:22:14;;;;;;;195.32;98.25;;;26.60;33.90;;;;;;6254645;27;88721;-59
2023/02/12 14:25:14;;;;;;;147.45;77.18;;;26.30;34.70;;;;;;6243512;27;83486;-60
2023/02/12 14:28:16;;;;;;;112.63;58.45;;;26.00;34.30;;;;;;6247546;27;83286;-61
2023/02/12 14:31:17;;;;;;;107.13;52.90;;;25.60;34.30;;;;;;6251079;27;83698;-61
2023/02/12 14:34:19;;;;;;;92.55;44.05;;;25.20;35.00;;;;;;6253212;27;87526;-62
2023/02/12 14:37:19;;;;;;;79.90;35.67;;;25.00;35.40;;;;;;6248514;27;83518;-61
2023/02/12 14:40:20;;;;;;;61.70;31.75;;;25.00;34.50;;;;;;6265199;27;83492;-60
2023/02/12 14:43:20;;;;;;;53.97;25.75;;;24.90;34.80;;;;;;6245656;27;83578;-61
2023/02/12 14:46:21;;;;;;;50.78;27.25;;;24.80;35.30;;;;;;6251898;27;83386;-61
2023/02/12 14:49:22;;;;;;;48.22;23.35;;;24.80;36.10;;;;;;6249659;27;83614;-61
2023/02/12 14:52:22;;;;;;;42.22;21.17;;;24.80;36.80;;;;;;6247447;27;85480;-59
2023/02/12 14:55:23;;;;;;;38.53;20.05;;;24.70;37.30;;;;;;6249256;27;83242;-61
2023/02/12 14:58:23;;;;;;;37.08;18.73;;;24.60;38.20;;;;;;6255284;27;84309;-59
2023/02/12 15:01:24;;;;;;;30.52;17.05;;;24.50;37.90;;;;;;6261197;27;83587;-60
2023/02/12 15:04:24;;;;;;;28.48;14.98;;;24.50;37.60;;;;;;6253264;27;83050;-59
2023/02/12 15:07:25;;;;;;;29.60;15.45;;;24.40;38.00;;;;;;6261240;27;83085;-65
2023/02/12 15:10:25;;;;;;;26.65;13.15;;;24.40;38.90;;;;;;6267744;27;83359;-63
2023/02/12 15:13:28;;;;;;;24.05;12.93;;;24.50;39.10;;;;;;6254059;27;85893;-72
2023/02/12 15:16:28;;;;;;;22.98;12.10;;;24.50;39.30;;;;;;6248233;27;84153;-64
2023/02/12 15:19:29;;;;;;;21.80;12.07;;;24.60;39.00;;;;;;6261079;27;87689;-65
2023/02/12 15:22:29;;;;;;;22.25;11.25;;;24.60;38.30;;;;;;6257863;27;83930;-64
2023/02/12 15:25:30;;;;;;;21.00;11.88;;;24.60;38.20;;;;;;6258840;27;83794;-48
2023/02/12 15:28:32;;;;;;;20.00;11.30;;;24.50;38.30;;;;;;6255167;27;86391;-53
2023/02/12 15:31:32;;;;;;;21.77;10.75;;;24.50;38.50;;;;;;6258973;27;85757;-50
2023/02/12 15:34:34;;;;;;;17.95;10.07;;;24.40;38.70;;;;;;6252914;27;84181;-51
2023/02/12 15:37:35;;;;;;;19.52;10.77;;;24.40;38.90;;;;;;6261399;27;84057;-55
2023/02/12 15:40:35;;;;;;;19.00;10.23;;;24.30;39.30;;;;;;6243760;27;84661;-56
2023/02/12 15:43:36;;;;;;;14.45;8.60;;;24.30;39.30;;;;;;6247990;27;83204;-69
2023/02/12 15:46:36;;;;;;;16.35;9.45;;;24.30;39.20;;;;;;6254889;27;85204;-64